createdAt,value
2019-06-20T00:00:46.063Z,17.36
2019-06-20T00:02:22.284Z,17.21
2019-06-20T00:03:56.986Z,17.21
2019-06-20T00:05:33.467Z,17.30
2019-06-20T00:07:08.178Z,17.31
2019-06-20T00:08:43.399Z,17.23
2019-06-20T00:10:18.122Z,17.26
2019-06-20T00:11:54.341Z,17.20
2019-06-20T00:13:28.986Z,17.08
2019-06-20T00:15:04.324Z,17.05
2019-06-20T00:16:39.227Z,17.01
2019-06-20T00:18:14.473Z,16.89
2019-06-20T00:19:49.131Z,16.95
2019-06-20T00:21:24.356Z,17.09
2019-06-20T00:22:59.010Z,17.04
2019-06-20T00:24:34.266Z,16.93
2019-06-20T00:26:08.909Z,16.94
2019-06-20T00:27:44.274Z,17.04
2019-06-20T00:29:18.977Z,17.10
2019-06-20T00:30:54.477Z,17.08
2019-06-20T00:32:29.131Z,16.99
2019-06-20T00:34:04.871Z,16.93
2019-06-20T00:35:39.510Z,16.98
2019-06-20T00:37:14.742Z,17.02
2019-06-20T00:38:49.410Z,17.08
2019-06-20T00:40:24.748Z,17.13
2019-06-20T00:41:59.404Z,17.16
2019-06-20T00:43:34.626Z,17.22
2019-06-20T00:45:09.622Z,17.20
2019-06-20T00:46:44.863Z,17.27
2019-06-20T00:48:19.611Z,17.26
2019-06-20T00:49:54.859Z,17.29
2019-06-20T00:51:29.591Z,17.38
2019-06-20T00:53:04.904Z,17.27
2019-06-20T00:54:39.560Z,17.25
2019-06-20T00:56:14.787Z,17.32
2019-06-20T00:57:49.434Z,17.03
2019-06-20T00:59:24.732Z,17.08
2019-06-20T01:00:59.375Z,16.99
2019-06-20T01:02:35.574Z,16.98
2019-06-20T01:04:10.379Z,17.01
2019-06-20T01:05:45.628Z,17.13
2019-06-20T01:07:20.618Z,17.03
2019-06-20T01:08:56.922Z,16.86
2019-06-20T01:10:31.555Z,16.78
2019-06-20T01:12:06.823Z,16.81
2019-06-20T01:13:41.507Z,16.67
2019-06-20T01:15:17.136Z,16.64
2019-06-20T01:16:51.781Z,16.61
2019-06-20T01:18:27.032Z,16.61
2019-06-20T01:20:01.707Z,16.69
2019-06-20T01:21:36.935Z,16.73
2019-06-20T01:23:11.644Z,16.72
2019-06-20T01:24:46.879Z,16.66
2019-06-20T01:26:22.569Z,16.65
2019-06-20T01:27:57.833Z,16.69
2019-06-20T01:29:32.476Z,16.68
2019-06-20T01:31:07.792Z,16.68
2019-06-20T01:32:42.467Z,16.76
2019-06-20T01:34:17.707Z,16.70
2019-06-20T01:35:52.447Z,16.76
2019-06-20T01:37:27.769Z,16.76
2019-06-20T01:39:02.443Z,16.75
2019-06-20T01:40:39.521Z,16.72
2019-06-20T01:42:14.193Z,16.70
2019-06-20T01:43:51.099Z,16.70
2019-06-20T01:45:26.094Z,16.71
2019-06-20T01:47:01.368Z,16.74
2019-06-20T01:48:36.106Z,16.73
2019-06-20T01:50:11.498Z,16.68
2019-06-20T01:51:46.132Z,16.67
2019-06-20T01:53:22.482Z,16.79
2019-06-20T01:54:57.137Z,16.67
2019-06-20T01:56:32.363Z,16.71
2019-06-20T01:58:07.006Z,16.76
2019-06-20T01:59:42.249Z,16.78
2019-06-20T02:01:17.330Z,16.82
2019-06-20T02:02:52.565Z,16.90
2019-06-20T02:04:27.237Z,16.93
2019-06-20T02:06:02.587Z,16.97
2019-06-20T02:07:37.225Z,17.01
2019-06-20T02:09:12.457Z,17.02
2019-06-20T02:10:47.177Z,16.93
2019-06-20T02:12:22.552Z,16.88
2019-06-20T02:14:06.757Z,16.96
2019-06-20T02:15:34.248Z,16.97
2019-06-20T02:17:08.985Z,16.99
2019-06-20T02:18:44.215Z,16.99
2019-06-20T02:20:31.540Z,16.99
2019-06-20T02:22:06.894Z,16.93
2019-06-20T02:23:41.534Z,16.94
2019-06-20T02:25:17.118Z,16.93
2019-06-20T02:26:51.773Z,16.88
2019-06-20T02:28:27.021Z,16.91
2019-06-20T02:30:01.665Z,16.82
2019-06-20T02:31:37.051Z,16.69
2019-06-20T02:33:11.768Z,16.60
2019-06-20T02:34:47.010Z,16.62
2019-06-20T02:36:21.652Z,16.61
2019-06-20T02:37:56.917Z,16.56
2019-06-20T02:39:31.573Z,16.59
2019-06-20T02:41:06.853Z,16.51
2019-06-20T02:42:41.601Z,16.50
2019-06-20T02:44:29.020Z,16.47
2019-06-20T02:45:53.589Z,16.40
2019-06-20T02:47:28.813Z,16.38
2019-06-20T02:49:03.533Z,16.39
2019-06-20T02:50:38.849Z,16.47
2019-06-20T02:52:13.779Z,16.45
2019-06-20T02:53:49.110Z,16.47
2019-06-20T02:55:23.891Z,16.42
2019-06-20T02:56:59.112Z,16.53
2019-06-20T02:58:33.792Z,16.38
2019-06-20T03:00:10.779Z,16.42
2019-06-20T03:01:45.408Z,16.33
2019-06-20T03:03:20.719Z,16.47
2019-06-20T03:04:55.387Z,16.47
2019-06-20T03:06:30.792Z,16.49
2019-06-20T03:08:05.511Z,16.52
2019-06-20T03:09:41.125Z,16.51
2019-06-20T03:11:15.795Z,16.48
2019-06-20T03:12:51.027Z,16.58
2019-06-20T03:14:25.661Z,16.67
2019-06-20T03:16:01.995Z,16.58
2019-06-20T03:17:36.681Z,16.54
2019-06-20T03:19:11.908Z,16.61
2019-06-20T03:20:46.738Z,16.60
2019-06-20T03:22:21.981Z,16.57
2019-06-20T03:23:56.614Z,16.61
2019-06-20T03:25:31.843Z,16.56
2019-06-20T03:27:06.550Z,16.66
2019-06-20T03:28:41.784Z,16.64
2019-06-20T03:30:16.681Z,16.60
2019-06-20T03:31:51.981Z,16.66
2019-06-20T03:33:26.604Z,16.65
2019-06-20T03:35:01.837Z,16.71
2019-06-20T03:36:36.486Z,16.71
2019-06-20T03:38:11.868Z,16.78
2019-06-20T03:39:46.459Z,16.94
2019-06-20T03:41:21.689Z,17.04
2019-06-20T03:42:56.349Z,16.94
2019-06-20T03:44:31.583Z,17.17
2019-06-20T03:46:06.305Z,17.17
2019-06-20T03:47:42.406Z,17.17
2019-06-20T03:49:17.056Z,17.27
2019-06-20T03:50:52.328Z,17.26
2019-06-20T03:52:26.975Z,17.39
2019-06-20T03:54:02.217Z,17.50
2019-06-20T03:55:37.994Z,17.35
2019-06-20T03:57:13.220Z,17.37
2019-06-20T03:58:48.040Z,17.39
2019-06-20T04:00:25.244Z,17.16
2019-06-20T04:01:59.848Z,17.30
2019-06-20T04:03:35.060Z,17.43
2019-06-20T04:05:09.995Z,17.47
2019-06-20T04:06:45.761Z,17.48
2019-06-20T04:08:20.420Z,17.38
2019-06-20T04:09:55.684Z,17.44
2019-06-20T04:11:30.687Z,17.32
2019-06-20T04:13:05.966Z,17.28
2019-06-20T04:14:40.613Z,17.34
2019-06-20T04:16:15.916Z,17.47
2019-06-20T04:17:50.636Z,17.45
2019-06-20T04:19:26.386Z,17.36
2019-06-20T04:21:01.076Z,17.39
2019-06-20T04:22:36.281Z,17.52
2019-06-20T04:24:10.956Z,17.66
2019-06-20T04:25:46.181Z,17.50
2019-06-20T04:27:20.932Z,17.54
2019-06-20T04:28:56.143Z,17.57
2019-06-20T04:30:30.774Z,17.70
2019-06-20T04:32:06.435Z,17.88
2019-06-20T04:33:41.549Z,17.83
2019-06-20T04:35:16.775Z,17.79
2019-06-20T04:36:51.410Z,17.85
2019-06-20T04:38:26.630Z,18.12
2019-06-20T04:40:01.274Z,18.02
2019-06-20T04:41:36.619Z,18.06
2019-06-20T04:43:11.298Z,18.22
2019-06-20T04:44:46.532Z,18.31
2019-06-20T04:46:36.198Z,18.34
2019-06-20T04:48:11.505Z,18.36
2019-06-20T04:49:46.112Z,18.07
2019-06-20T04:51:21.338Z,18.46
2019-06-20T04:52:55.983Z,18.49
2019-06-20T04:54:31.215Z,18.23
2019-06-20T04:56:06.076Z,18.32
2019-06-20T04:57:41.370Z,18.09
2019-06-20T04:59:16.084Z,17.90
2019-06-20T05:00:51.324Z,17.89
2019-06-20T05:02:34.183Z,18.01
2019-06-20T05:04:09.453Z,17.88
2019-06-20T05:05:44.129Z,18.25
2019-06-20T05:07:20.545Z,17.95
2019-06-20T05:08:55.196Z,18.01
2019-06-20T05:10:30.433Z,18.25
2019-06-20T05:12:05.159Z,18.25
2019-06-20T05:13:40.450Z,18.67
2019-06-20T05:15:15.178Z,18.75
2019-06-20T05:16:50.433Z,18.49
2019-06-20T05:18:25.135Z,18.68
2019-06-20T05:20:00.702Z,18.98
2019-06-20T05:21:35.633Z,19.80
2019-06-20T05:23:10.908Z,20.67
2019-06-20T05:24:45.567Z,24.22
2019-06-20T05:26:20.781Z,24.49
2019-06-20T05:27:55.425Z,26.81
2019-06-20T05:29:31.059Z,26.62
2019-06-20T05:31:05.706Z,25.80
2019-06-20T05:32:41.012Z,25.06
2019-06-20T05:34:15.658Z,23.65
2019-06-20T05:35:50.870Z,23.46
2019-06-20T05:37:25.595Z,23.12
2019-06-20T05:39:00.792Z,24.97
2019-06-20T05:40:37.246Z,23.65
2019-06-20T05:42:12.467Z,21.41
2019-06-20T05:43:47.123Z,20.79
2019-06-20T05:45:22.362Z,20.50
2019-06-20T05:47:11.442Z,20.82
2019-06-20T05:48:33.955Z,20.78
2019-06-20T05:50:09.004Z,21.18
2019-06-20T05:51:44.244Z,21.05
2019-06-20T05:53:18.884Z,21.26
2019-06-20T05:54:54.175Z,20.99
2019-06-20T05:56:28.823Z,20.94
2019-06-20T05:58:04.034Z,22.93
2019-06-20T05:59:38.675Z,23.39
2019-06-20T06:01:13.879Z,23.13
2019-06-20T06:02:48.556Z,23.90
2019-06-20T06:04:24.759Z,29.18
2019-06-20T06:05:59.465Z,24.96
2019-06-20T06:07:34.696Z,23.56
2019-06-20T06:09:09.659Z,23.49
2019-06-20T06:10:45.483Z,24.16
2019-06-20T06:12:20.131Z,23.49
2019-06-20T06:13:56.253Z,22.77
2019-06-20T06:15:31.039Z,24.05
2019-06-20T06:17:06.333Z,22.51
2019-06-20T06:18:40.965Z,22.59
2019-06-20T06:20:16.597Z,23.00
2019-06-20T06:21:51.308Z,22.70
2019-06-20T06:23:26.509Z,22.78
2019-06-20T06:25:01.198Z,23.02
2019-06-20T06:26:36.521Z,22.90
2019-06-20T06:28:12.527Z,22.57
2019-06-20T06:29:48.086Z,21.96
2019-06-20T06:31:23.900Z,21.32
2019-06-20T06:32:59.124Z,20.71
2019-06-20T06:34:33.769Z,21.47
2019-06-20T06:36:09.015Z,22.56
2019-06-20T06:37:43.633Z,22.72
2019-06-20T06:39:19.284Z,22.23
2019-06-20T06:40:54.050Z,21.76
2019-06-20T06:42:29.395Z,21.65
2019-06-20T06:44:04.117Z,22.20
2019-06-20T06:45:40.493Z,21.69
2019-06-20T06:47:15.124Z,20.98
2019-06-20T06:48:50.622Z,21.65
2019-06-20T06:50:25.805Z,21.62
2019-06-20T06:52:01.056Z,21.51
2019-06-20T06:53:35.773Z,21.40
2019-06-20T06:55:11.191Z,20.95
2019-06-20T06:56:45.841Z,20.79
2019-06-20T06:58:21.091Z,20.90
2019-06-20T06:59:55.844Z,21.09
2019-06-20T07:01:31.318Z,21.28
2019-06-20T07:03:06.052Z,21.15
2019-06-20T07:04:41.295Z,21.15
2019-06-20T07:06:15.997Z,21.13
2019-06-20T07:07:51.325Z,22.13
2019-06-20T07:09:25.981Z,21.63
2019-06-20T07:11:01.277Z,21.71
2019-06-20T07:12:36.006Z,21.80
2019-06-20T07:14:11.308Z,21.09
2019-06-20T07:15:45.940Z,20.92
2019-06-20T07:17:21.184Z,22.17
2019-06-20T07:18:56.767Z,22.64
2019-06-20T07:20:32.009Z,22.79
2019-06-20T07:22:06.736Z,27.25
2019-06-20T07:23:41.990Z,29.17
2019-06-20T07:25:16.966Z,27.98
2019-06-20T07:26:52.221Z,24.67
2019-06-20T07:28:26.856Z,24.38
2019-06-20T07:30:02.161Z,23.81
2019-06-20T07:31:36.868Z,22.90
2019-06-20T07:33:12.205Z,22.40
2019-06-20T07:34:46.838Z,22.59
2019-06-20T07:36:22.063Z,22.53
2019-06-20T07:37:56.778Z,22.17
2019-06-20T07:39:31.949Z,22.19
2019-06-20T07:41:06.579Z,22.00
2019-06-20T07:42:41.830Z,22.50
2019-06-20T07:44:16.482Z,22.75
2019-06-20T07:46:02.024Z,22.91
2019-06-20T07:47:28.103Z,22.64
2019-06-20T07:49:03.322Z,22.62
2019-06-20T07:50:39.404Z,22.12
2019-06-20T07:52:14.809Z,22.42
2019-06-20T07:53:49.462Z,23.29
2019-06-20T07:55:24.750Z,23.97
2019-06-20T07:56:59.387Z,23.64
2019-06-20T07:58:34.731Z,22.84
2019-06-20T08:00:10.330Z,22.10
2019-06-20T08:01:46.534Z,22.48
2019-06-20T08:03:21.206Z,22.77
2019-06-20T08:04:56.404Z,22.77
2019-06-20T08:06:31.083Z,22.54
2019-06-20T08:08:06.585Z,22.16
2019-06-20T08:09:45.157Z,22.31
2019-06-20T08:11:18.358Z,22.12
2019-06-20T08:12:53.308Z,22.36
2019-06-20T08:14:28.551Z,22.63
2019-06-20T08:16:04.056Z,22.58
2019-06-20T08:17:39.490Z,22.48
2019-06-20T08:19:14.175Z,22.28
2019-06-20T08:20:49.549Z,22.59
2019-06-20T08:22:24.201Z,22.83
2019-06-20T08:23:59.423Z,22.51
2019-06-20T08:25:34.259Z,22.61
2019-06-20T08:27:10.652Z,22.55
2019-06-20T08:28:45.323Z,22.67
2019-06-20T08:30:25.747Z,22.34
2019-06-20T08:32:01.040Z,22.12
2019-06-20T08:33:37.349Z,22.74
2019-06-20T08:35:12.090Z,22.91
2019-06-20T08:36:47.363Z,23.65
2019-06-20T08:38:22.049Z,24.11
2019-06-20T08:39:58.379Z,24.35
2019-06-20T08:41:33.220Z,24.87
2019-06-20T08:43:08.636Z,24.08
2019-06-20T08:44:43.405Z,24.19
2019-06-20T08:46:18.648Z,24.22
2019-06-20T08:47:56.489Z,23.83
2019-06-20T08:49:31.505Z,23.83
2019-06-20T08:51:06.593Z,23.64
2019-06-20T08:52:42.156Z,23.59
2019-06-20T08:54:16.839Z,23.98
2019-06-20T08:55:52.142Z,24.34
2019-06-20T08:57:27.183Z,24.70
2019-06-20T08:59:02.674Z,24.43
2019-06-20T09:00:39.435Z,25.45
2019-06-20T09:02:14.681Z,25.37
2019-06-20T09:03:49.300Z,25.66
2019-06-20T09:05:24.871Z,25.98
2019-06-20T09:07:00.599Z,25.59
2019-06-20T09:08:36.327Z,25.56
2019-06-20T09:10:11.883Z,26.72
2019-06-20T09:11:47.156Z,28.50
2019-06-20T09:13:21.851Z,28.00
2019-06-20T09:14:57.008Z,28.52
2019-06-20T09:16:31.723Z,28.66
2019-06-20T09:18:07.192Z,28.57
2019-06-20T09:19:41.826Z,27.64
2019-06-20T09:21:17.070Z,29.43
2019-06-20T09:22:52.319Z,29.62
2019-06-20T09:24:28.710Z,28.79
2019-06-20T09:26:03.904Z,30.70
2019-06-20T09:27:39.610Z,31.29
2019-06-20T09:29:14.243Z,30.38
2019-06-20T09:30:50.656Z,30.20
2019-06-20T09:32:25.843Z,30.08
2019-06-20T09:34:04.903Z,29.66
2019-06-20T09:35:37.480Z,30.31
2019-06-20T09:37:12.689Z,28.14
2019-06-20T09:38:47.495Z,28.16
2019-06-20T09:40:23.096Z,27.75
2019-06-20T09:41:58.909Z,27.75
2019-06-20T09:43:34.233Z,28.84
2019-06-20T09:45:09.226Z,27.76
2019-06-20T09:46:44.546Z,28.18
2019-06-20T09:48:19.236Z,27.87
2019-06-20T09:49:55.999Z,27.66
2019-06-20T09:51:30.921Z,26.71
2019-06-20T09:53:06.329Z,27.09
2019-06-20T09:54:40.959Z,27.67
2019-06-20T09:56:16.258Z,28.01
2019-06-20T09:57:51.999Z,27.70
2019-06-20T09:59:28.047Z,26.86
2019-06-20T10:01:03.892Z,26.56
2019-06-20T10:02:39.555Z,28.24
2019-06-20T10:04:14.206Z,28.21
2019-06-20T10:05:50.699Z,27.62
2019-06-20T10:07:25.610Z,26.88
2019-06-20T10:09:00.834Z,25.95
2019-06-20T10:10:38.023Z,25.78
2019-06-20T10:12:13.325Z,27.04
2019-06-20T10:13:48.211Z,25.86
2019-06-20T10:15:25.248Z,25.46
2019-06-20T10:16:59.976Z,25.73
2019-06-20T10:18:35.200Z,25.77
2019-06-20T10:20:09.897Z,25.75
2019-06-20T10:21:46.766Z,25.86
2019-06-20T10:23:21.558Z,25.63
2019-06-20T10:24:57.883Z,25.54
2019-06-20T10:26:32.614Z,25.69
2019-06-20T10:28:08.008Z,27.16
2019-06-20T10:29:42.661Z,27.54
2019-06-20T10:31:17.955Z,27.57
2019-06-20T10:32:53.172Z,27.86
2019-06-20T10:34:31.127Z,27.58
2019-06-20T10:36:05.097Z,27.48
2019-06-20T10:37:40.482Z,27.63
2019-06-20T10:39:15.118Z,28.20
2019-06-20T10:40:50.459Z,28.25
2019-06-20T10:42:25.109Z,26.92
2019-06-20T10:44:00.330Z,26.91
2019-06-20T10:45:35.722Z,26.58
2019-06-20T10:47:11.114Z,27.57
2019-06-20T10:48:46.009Z,27.28
2019-06-20T10:50:21.758Z,27.14
2019-06-20T10:51:56.397Z,27.91
2019-06-20T10:53:31.642Z,28.03
2019-06-20T10:55:07.194Z,27.63
2019-06-20T10:56:44.109Z,26.75
2019-06-20T10:58:18.847Z,26.60
2019-06-20T10:59:54.075Z,26.22
2019-06-20T11:01:28.709Z,26.37
2019-06-20T11:03:04.035Z,26.55
2019-06-20T11:04:40.491Z,27.01
2019-06-20T11:06:15.590Z,26.62
2019-06-20T11:07:50.406Z,25.78
2019-06-20T11:09:25.661Z,26.31
2019-06-20T11:11:00.317Z,26.89
2019-06-20T11:12:45.692Z,27.10
2019-06-20T11:14:12.164Z,26.88
2019-06-20T11:15:48.281Z,27.55
2019-06-20T11:17:24.092Z,26.53
2019-06-20T11:18:59.340Z,27.28
2019-06-20T11:20:33.980Z,28.07
2019-06-20T11:22:09.303Z,28.70
2019-06-20T11:23:45.243Z,28.80
2019-06-20T11:25:21.047Z,28.39
2019-06-20T11:26:55.698Z,27.92
2019-06-20T11:28:30.996Z,26.45
2019-06-20T11:30:08.012Z,26.32
2019-06-20T11:31:46.384Z,27.38
2019-06-20T11:33:20.530Z,27.52
2019-06-20T11:34:55.764Z,26.77
2019-06-20T11:36:30.401Z,26.71
2019-06-20T11:38:05.626Z,26.39
2019-06-20T11:39:41.091Z,26.53
2019-06-20T11:41:16.392Z,26.81
2019-06-20T11:42:51.165Z,27.53
2019-06-20T11:44:27.346Z,28.25
2019-06-20T11:46:02.026Z,28.17
2019-06-20T11:47:38.268Z,26.58
2019-06-20T11:49:13.067Z,27.21
2019-06-20T11:50:48.421Z,26.40
2019-06-20T11:52:23.317Z,26.00
2019-06-20T11:53:58.538Z,26.64
2019-06-20T11:55:33.168Z,26.89
2019-06-20T11:57:08.414Z,27.11
2019-06-20T11:58:43.074Z,27.02
2019-06-20T12:00:18.468Z,27.23
2019-06-20T12:01:53.132Z,27.45
2019-06-20T12:03:28.689Z,26.87
2019-06-20T12:05:03.413Z,27.61
2019-06-20T12:06:40.137Z,27.29
2019-06-20T12:08:15.041Z,26.85
2019-06-20T12:09:51.112Z,27.21
2019-06-20T12:11:26.841Z,27.87
2019-06-20T12:13:02.109Z,26.22
2019-06-20T12:14:38.123Z,25.37
2019-06-20T12:16:13.657Z,25.12
2019-06-20T12:17:49.326Z,25.36
2019-06-20T12:19:24.801Z,25.74
2019-06-20T12:20:59.479Z,25.97
2019-06-20T12:22:34.897Z,25.78
2019-06-20T12:24:09.547Z,25.81
2019-06-20T12:25:44.861Z,26.12
2019-06-20T12:27:19.501Z,25.68
2019-06-20T12:28:54.810Z,25.80
2019-06-20T12:30:29.595Z,25.45
2019-06-20T12:32:05.197Z,25.75
2019-06-20T12:33:41.030Z,26.04
2019-06-20T12:35:16.296Z,26.10
2019-06-20T12:36:50.881Z,26.05
2019-06-20T12:38:26.127Z,25.95
2019-06-20T12:40:01.748Z,25.60
2019-06-20T12:41:38.735Z,25.42
2019-06-20T12:43:13.723Z,25.51
2019-06-20T12:44:50.719Z,25.16
2019-06-20T12:46:25.444Z,25.82
2019-06-20T12:48:00.685Z,26.00
2019-06-20T12:49:35.325Z,25.43
2019-06-20T12:51:10.628Z,25.67
2019-06-20T12:52:45.818Z,26.29
2019-06-20T12:54:22.263Z,26.11
2019-06-20T12:55:57.002Z,26.28
2019-06-20T12:57:32.247Z,26.92
2019-06-20T12:59:06.968Z,26.84
2019-06-20T13:00:43.635Z,26.33
2019-06-20T13:02:18.694Z,26.18
2019-06-20T13:03:53.996Z,26.30
2019-06-20T13:05:28.788Z,26.74
2019-06-20T13:07:03.997Z,27.02
2019-06-20T13:08:39.013Z,27.40
2019-06-20T13:10:15.714Z,27.48
2019-06-20T13:11:50.372Z,27.31
2019-06-20T13:13:25.587Z,27.05
2019-06-20T13:15:00.306Z,26.50
2019-06-20T13:16:35.564Z,26.76
2019-06-20T13:18:10.196Z,26.64
2019-06-20T13:19:46.506Z,26.60
2019-06-20T13:21:21.190Z,26.65
2019-06-20T13:22:56.436Z,26.29
2019-06-20T13:24:31.078Z,26.20
2019-06-20T13:26:06.392Z,25.99
2019-06-20T13:27:41.136Z,26.42
2019-06-20T13:29:16.368Z,27.06
2019-06-20T13:30:52.245Z,26.67
2019-06-20T13:32:27.536Z,26.63
2019-06-20T13:34:02.218Z,26.48
2019-06-20T13:35:39.982Z,26.51
2019-06-20T13:37:15.634Z,26.49
2019-06-20T13:38:50.993Z,26.37
2019-06-20T13:40:25.716Z,25.89
2019-06-20T13:42:00.984Z,26.01
2019-06-20T13:43:35.633Z,26.10
2019-06-20T13:45:19.988Z,25.93
2019-06-20T13:46:55.201Z,25.87
2019-06-20T13:48:29.863Z,25.96
2019-06-20T13:50:06.162Z,25.76
2019-06-20T13:51:41.919Z,25.99
2019-06-20T13:53:17.276Z,25.46
2019-06-20T13:54:52.124Z,26.02
2019-06-20T13:56:27.388Z,25.98
2019-06-20T13:58:02.036Z,25.80
2019-06-20T13:59:37.616Z,26.00
2019-06-20T14:01:12.252Z,26.09
2019-06-20T14:02:48.908Z,25.91
2019-06-20T14:04:24.062Z,26.00
2019-06-20T14:05:59.379Z,26.15
2019-06-20T14:07:34.123Z,25.88
2019-06-20T14:09:09.418Z,25.83
2019-06-20T14:10:44.774Z,26.53
2019-06-20T14:12:21.186Z,26.97
2019-06-20T14:13:55.813Z,26.58
2019-06-20T14:15:31.113Z,26.36
2019-06-20T14:17:05.852Z,25.97
2019-06-20T14:18:42.591Z,25.85
2019-06-20T14:20:17.993Z,25.82
2019-06-20T14:21:54.325Z,26.26
2019-06-20T14:23:29.059Z,26.66
2019-06-20T14:25:04.971Z,27.12
2019-06-20T14:26:39.613Z,26.88
2019-06-20T14:28:14.861Z,26.74
2019-06-20T14:29:50.823Z,26.03
2019-06-20T14:31:26.187Z,26.33
2019-06-20T14:33:00.843Z,26.20
2019-06-20T14:34:36.251Z,26.38
2019-06-20T14:36:10.996Z,26.95
2019-06-20T14:37:49.271Z,27.07
2019-06-20T14:39:23.846Z,27.06
2019-06-20T14:40:59.097Z,26.64
2019-06-20T14:42:33.738Z,26.37
2019-06-20T14:44:08.976Z,26.44
2019-06-20T14:45:45.125Z,26.32
2019-06-20T14:47:20.570Z,26.27
2019-06-20T14:48:55.230Z,26.23
2019-06-20T14:50:31.541Z,26.56
2019-06-20T14:52:06.359Z,26.64
2019-06-20T14:53:43.903Z,26.51
2019-06-20T14:55:19.390Z,26.09
2019-06-20T14:56:57.952Z,25.93
2019-06-20T14:58:30.949Z,25.93
2019-06-20T15:00:07.818Z,26.03
2019-06-20T15:01:44.587Z,25.98
2019-06-20T15:03:19.642Z,26.09
2019-06-20T15:04:54.433Z,26.09
2019-06-20T15:06:29.704Z,26.04
2019-06-20T15:08:04.478Z,26.20
2019-06-20T15:09:39.671Z,26.03
2019-06-20T15:11:14.371Z,25.37
2019-06-20T15:12:51.396Z,26.02
2019-06-20T15:14:25.937Z,26.25
2019-06-20T15:16:01.181Z,26.32
2019-06-20T15:17:36.977Z,26.32
2019-06-20T15:19:12.213Z,26.21
2019-06-20T15:20:48.307Z,26.34
2019-06-20T15:22:23.794Z,25.93
2019-06-20T15:23:58.506Z,25.88
2019-06-20T15:25:33.807Z,25.64
2019-06-20T15:27:08.528Z,25.68
2019-06-20T15:28:43.765Z,25.73
2019-06-20T15:30:18.766Z,25.90
2019-06-20T15:31:54.861Z,26.35
2019-06-20T15:33:29.538Z,26.28
2019-06-20T15:35:05.060Z,26.36
2019-06-20T15:36:39.787Z,26.37
2019-06-20T15:38:15.068Z,26.03
2019-06-20T15:39:51.390Z,25.69
2019-06-20T15:41:26.666Z,25.69
2019-06-20T15:43:01.391Z,25.60
2019-06-20T15:44:36.625Z,25.03
2019-06-20T15:46:11.276Z,25.16
2019-06-20T15:47:46.577Z,25.34
2019-06-20T15:49:21.246Z,25.18
2019-06-20T15:50:56.481Z,25.40
2019-06-20T15:52:31.163Z,25.60
2019-06-20T15:54:06.984Z,25.68
2019-06-20T15:55:41.731Z,26.00
2019-06-20T15:57:16.907Z,26.07
2019-06-20T15:58:51.541Z,26.34
2019-06-20T16:00:28.399Z,26.42
2019-06-20T16:02:03.201Z,26.32
2019-06-20T16:03:38.437Z,26.06
2019-06-20T16:05:13.073Z,26.15
2019-06-20T16:06:48.621Z,25.86
2019-06-20T16:08:24.582Z,25.67
2019-06-20T16:09:59.802Z,25.48
2019-06-20T16:11:34.451Z,25.25
2019-06-20T16:13:09.667Z,24.83
2019-06-20T16:14:44.332Z,24.61
2019-06-20T16:16:19.565Z,24.58
2019-06-20T16:17:54.294Z,24.44
2019-06-20T16:19:29.561Z,24.27
2019-06-20T16:21:04.620Z,24.32
2019-06-20T16:22:39.895Z,24.63
2019-06-20T16:24:14.529Z,24.73
2019-06-20T16:25:49.746Z,24.87
2019-06-20T16:27:24.395Z,24.82
2019-06-20T16:28:59.625Z,24.74
2019-06-20T16:30:34.278Z,24.76
2019-06-20T16:32:09.537Z,24.78
2019-06-20T16:33:44.168Z,24.50
2019-06-20T16:35:19.747Z,24.55
2019-06-20T16:37:08.971Z,24.48
2019-06-20T16:38:31.372Z,24.60
2019-06-20T16:40:06.267Z,24.57
2019-06-20T16:41:41.496Z,24.56
2019-06-20T16:43:16.219Z,24.47
2019-06-20T16:44:51.436Z,24.69
2019-06-20T16:46:26.110Z,24.80
2019-06-20T16:48:01.379Z,24.76
2019-06-20T16:49:36.120Z,24.78
2019-06-20T16:51:11.357Z,24.81
2019-06-20T16:52:46.006Z,24.66
2019-06-20T16:54:21.267Z,24.69
2019-06-20T16:55:57.074Z,24.78
2019-06-20T16:57:32.311Z,24.99
2019-06-20T16:59:06.925Z,24.87
2019-06-20T17:00:42.281Z,24.69
2019-06-20T17:02:16.895Z,24.60
2019-06-20T17:03:52.123Z,24.65
2019-06-20T17:05:26.855Z,24.53
2019-06-20T17:07:02.793Z,24.54
2019-06-20T17:08:37.481Z,24.28
2019-06-20T17:10:13.144Z,24.39
2019-06-20T17:11:47.780Z,24.60
2019-06-20T17:13:23.052Z,24.55
2019-06-20T17:14:57.726Z,24.42
2019-06-20T17:16:33.026Z,24.15
2019-06-20T17:18:07.817Z,24.27
2019-06-20T17:19:43.050Z,24.37
2019-06-20T17:21:17.734Z,24.16
2019-06-20T17:22:52.992Z,24.26
2019-06-20T17:24:27.641Z,24.18
2019-06-20T17:26:02.994Z,23.88
2019-06-20T17:27:37.760Z,23.68
2019-06-20T17:29:13.012Z,23.62
2019-06-20T17:30:47.741Z,23.59
2019-06-20T17:32:23.044Z,23.60
2019-06-20T17:33:58.116Z,23.54
2019-06-20T17:35:33.336Z,23.53
2019-06-20T17:37:08.084Z,23.46
2019-06-20T17:38:43.329Z,23.47
2019-06-20T17:40:18.802Z,23.54
2019-06-20T17:41:55.542Z,23.53
2019-06-20T17:43:30.511Z,23.52
2019-06-20T17:45:06.369Z,23.42
2019-06-20T17:46:42.164Z,23.37
2019-06-20T17:48:17.473Z,23.29
2019-06-20T17:49:52.087Z,23.29
2019-06-20T17:51:27.652Z,23.18
2019-06-20T17:53:02.532Z,23.12
2019-06-20T17:54:37.775Z,23.08
2019-06-20T17:56:12.428Z,22.98
2019-06-20T17:57:47.719Z,23.02
2019-06-20T17:59:22.921Z,22.95
2019-06-20T18:00:58.620Z,22.95
2019-06-20T18:02:33.269Z,22.99
2019-06-20T18:04:13.737Z,22.87
2019-06-20T18:05:44.906Z,22.80
2019-06-20T18:07:20.134Z,22.82
2019-06-20T18:08:54.798Z,22.80
2019-06-20T18:10:30.130Z,22.77
2019-06-20T18:12:04.947Z,22.68
2019-06-20T18:13:40.132Z,22.61
2019-06-20T18:15:15.211Z,22.72
2019-06-20T18:16:50.450Z,22.66
2019-06-20T18:18:25.159Z,22.62
2019-06-20T18:20:00.439Z,22.05
2019-06-20T18:21:35.165Z,21.50
2019-06-20T18:23:10.481Z,21.37
2019-06-20T18:24:45.128Z,20.68
2019-06-20T18:26:20.357Z,20.44
2019-06-20T18:27:55.029Z,20.58
2019-06-20T18:29:30.276Z,20.27
2019-06-20T18:31:05.010Z,20.17
2019-06-20T18:32:40.325Z,20.08
2019-06-20T18:34:29.104Z,19.64
2019-06-20T18:35:51.934Z,19.62
2019-06-20T18:37:31.469Z,19.58
2019-06-20T18:39:03.583Z,19.38
2019-06-20T18:40:39.895Z,19.44
2019-06-20T18:42:15.110Z,19.35
2019-06-20T18:43:49.804Z,19.47
2019-06-20T18:45:25.481Z,19.11
2019-06-20T18:47:00.122Z,19.13
2019-06-20T18:48:35.337Z,19.07
2019-06-20T18:50:10.431Z,19.07
2019-06-20T18:51:45.683Z,19.45
2019-06-20T18:53:20.333Z,19.38
2019-06-20T18:54:55.543Z,19.48
2019-06-20T18:56:30.194Z,19.42
2019-06-20T18:58:05.498Z,19.15
2019-06-20T18:59:40.168Z,19.20
2019-06-20T19:01:15.481Z,19.42
2019-06-20T19:02:51.079Z,19.63
2019-06-20T19:04:26.336Z,19.39
2019-06-20T19:06:01.228Z,19.51
2019-06-20T19:07:36.989Z,19.35
2019-06-20T19:09:11.701Z,19.43
2019-06-20T19:10:47.150Z,19.52
2019-06-20T19:12:21.770Z,19.36
2019-06-20T19:13:57.006Z,19.49
2019-06-20T19:15:31.723Z,19.39
2019-06-20T19:17:06.965Z,19.40
2019-06-20T19:18:41.639Z,19.21
2019-06-20T19:20:17.479Z,19.31
2019-06-20T19:21:52.102Z,19.63
2019-06-20T19:23:27.382Z,19.53
2019-06-20T19:25:04.057Z,19.52
2019-06-20T19:26:39.008Z,19.58
2019-06-20T19:28:13.688Z,19.39
2019-06-20T19:29:49.796Z,19.43
2019-06-20T19:31:24.853Z,19.39
2019-06-20T19:33:00.165Z,19.38
2019-06-20T19:34:34.824Z,19.44
2019-06-20T19:36:10.051Z,19.46
2019-06-20T19:37:45.683Z,19.36
2019-06-20T19:39:20.905Z,19.31
2019-06-20T19:40:55.825Z,19.07
2019-06-20T19:42:31.157Z,19.20
2019-06-20T19:44:05.984Z,19.22
2019-06-20T19:45:41.281Z,19.23
2019-06-20T19:47:15.900Z,19.23
2019-06-20T19:48:51.109Z,18.96
2019-06-20T19:50:25.833Z,19.06
2019-06-20T19:52:01.138Z,19.14
2019-06-20T19:53:35.933Z,19.09
2019-06-20T19:55:11.991Z,19.23
2019-06-20T19:56:46.717Z,19.31
2019-06-20T19:58:22.152Z,19.19
2019-06-20T19:59:56.864Z,19.29
2019-06-20T20:01:32.246Z,19.19
2019-06-20T20:03:06.965Z,19.18
2019-06-20T20:04:44.209Z,19.21
2019-06-20T20:06:19.138Z,19.06
2019-06-20T20:07:54.918Z,19.25
2019-06-20T20:09:29.760Z,19.19
2019-06-20T20:11:05.161Z,19.22
2019-06-20T20:12:40.298Z,19.16
2019-06-20T20:14:15.588Z,19.14
2019-06-20T20:15:50.407Z,19.02
2019-06-20T20:17:25.900Z,19.14
2019-06-20T20:19:00.704Z,19.01
2019-06-20T20:20:36.515Z,19.08
2019-06-20T20:22:12.689Z,19.02
2019-06-20T20:23:48.047Z,18.95
2019-06-20T20:25:22.948Z,19.02
2019-06-20T20:26:58.236Z,19.04